createdAt,value
2019-05-25T00:00:07.694Z,14.98
2019-05-25T00:01:07.746Z,15.08
2019-05-25T00:02:07.703Z,15.08
2019-05-25T00:03:07.716Z,15.17
2019-05-25T00:04:07.730Z,15.09
2019-05-25T00:05:07.736Z,15.03
2019-05-25T00:06:07.742Z,15.12
2019-05-25T00:07:07.756Z,15.08
2019-05-25T00:08:07.762Z,15.05
2019-05-25T00:09:07.773Z,14.99
2019-05-25T00:10:07.781Z,15.02
2019-05-25T00:11:07.793Z,14.86
2019-05-25T00:12:07.803Z,14.87
2019-05-25T00:13:07.810Z,14.78
2019-05-25T00:14:07.819Z,14.75
2019-05-25T00:15:07.834Z,14.74
2019-05-25T00:16:07.841Z,14.72
2019-05-25T00:17:07.847Z,14.64
2019-05-25T00:18:07.859Z,14.67
2019-05-25T00:19:07.870Z,14.69
2019-05-25T00:20:07.878Z,14.64
2019-05-25T00:21:07.885Z,14.57
2019-05-25T00:22:07.895Z,14.53
2019-05-25T00:23:07.907Z,14.52
2019-05-25T00:24:12.351Z,14.65
2019-05-25T00:25:07.924Z,14.67
2019-05-25T00:26:07.935Z,14.64
2019-05-25T00:27:07.947Z,14.67
2019-05-25T00:28:07.956Z,14.64
2019-05-25T00:29:07.966Z,14.62
2019-05-25T00:30:07.973Z,14.64
2019-05-25T00:31:07.984Z,14.71
2019-05-25T00:32:07.986Z,14.74
2019-05-25T00:33:08.004Z,14.69
2019-05-25T00:34:08.011Z,14.72
2019-05-25T00:35:08.020Z,14.67
2019-05-25T00:36:08.027Z,14.75
2019-05-25T00:37:08.043Z,14.62
2019-05-25T00:38:08.050Z,14.68
2019-05-25T00:39:08.065Z,14.54
2019-05-25T00:40:08.067Z,14.65
2019-05-25T00:41:08.077Z,14.57
2019-05-25T00:42:08.084Z,14.68
2019-05-25T00:43:08.101Z,14.64
2019-05-25T00:44:08.105Z,14.72
2019-05-25T00:45:08.114Z,14.65
2019-05-25T00:46:08.126Z,14.54
2019-05-25T00:47:08.138Z,14.52
2019-05-25T00:48:08.144Z,14.52
2019-05-25T00:49:08.152Z,14.56
2019-05-25T00:50:08.166Z,14.52
2019-05-25T00:51:08.172Z,14.56
2019-05-25T00:52:08.180Z,14.53
2019-05-25T00:53:08.191Z,14.62
2019-05-25T00:54:08.200Z,14.64
2019-05-25T00:55:08.240Z,14.60
2019-05-25T00:56:08.215Z,14.61
2019-05-25T00:57:15.398Z,14.56
2019-05-25T00:59:12.244Z,14.60
2019-05-25T01:00:12.239Z,14.57
2019-05-25T01:02:16.249Z,14.56
2019-05-25T01:03:16.254Z,14.57
2019-05-25T01:05:20.266Z,14.62
2019-05-25T01:06:20.260Z,14.56
2019-05-25T01:08:13.194Z,14.65
2019-05-25T01:09:13.191Z,14.57
2019-05-25T01:10:13.203Z,14.56
2019-05-25T01:11:13.210Z,14.75
2019-05-25T01:12:13.214Z,14.68
2019-05-25T01:13:13.230Z,14.65
2019-05-25T01:14:13.238Z,14.61
2019-05-25T01:15:13.248Z,14.62
2019-05-25T01:16:13.266Z,14.71
2019-05-25T01:17:13.267Z,14.64
2019-05-25T01:18:13.272Z,14.62
2019-05-25T01:19:13.282Z,14.74
2019-05-25T01:20:13.297Z,14.62
2019-05-25T01:21:13.304Z,14.65
2019-05-25T01:22:13.315Z,14.75
2019-05-25T01:23:13.318Z,14.72
2019-05-25T01:24:13.331Z,14.71
2019-05-25T01:25:13.340Z,14.72
2019-05-25T01:26:13.343Z,14.71
2019-05-25T01:27:13.360Z,14.68
2019-05-25T01:28:13.370Z,14.74
2019-05-25T01:29:13.377Z,14.75
2019-05-25T01:30:13.385Z,14.80
2019-05-25T01:31:13.396Z,14.86
2019-05-25T01:32:13.403Z,14.87
2019-05-25T01:33:13.411Z,14.87
2019-05-25T01:34:13.422Z,14.86
2019-05-25T01:35:13.439Z,14.86
2019-05-25T01:36:13.442Z,14.88
2019-05-25T01:37:13.451Z,14.98
2019-05-25T01:38:13.462Z,14.91
2019-05-25T01:39:13.471Z,14.90
2019-05-25T01:40:13.476Z,14.99
2019-05-25T01:41:13.488Z,14.94
2019-05-25T01:42:13.496Z,14.95
2019-05-25T01:43:13.506Z,14.99
2019-05-25T01:44:13.518Z,14.95
2019-05-25T01:45:13.528Z,14.95
2019-05-25T01:46:13.537Z,14.98
2019-05-25T01:47:13.544Z,14.93
2019-05-25T01:48:13.554Z,14.94
2019-05-25T01:49:13.568Z,15.01
2019-05-25T01:50:13.575Z,15.03
2019-05-25T01:51:13.578Z,15.06
2019-05-25T01:52:13.592Z,14.99
2019-05-25T01:53:13.601Z,14.98
2019-05-25T01:54:13.609Z,15.02
2019-05-25T01:55:13.619Z,14.99
2019-05-25T01:56:13.629Z,15.01
2019-05-25T01:57:13.640Z,15.02
2019-05-25T01:58:13.646Z,15.02
2019-05-25T01:59:13.659Z,15.03
2019-05-25T02:00:13.668Z,15.01
2019-05-25T02:01:13.677Z,14.99
2019-05-25T02:02:13.684Z,14.94
2019-05-25T02:03:13.696Z,14.95
2019-05-25T02:04:13.706Z,15.03
2019-05-25T02:05:13.707Z,15.01
2019-05-25T02:06:13.723Z,14.98
2019-05-25T02:07:13.733Z,14.95
2019-05-25T02:08:13.740Z,14.84
2019-05-25T02:09:13.764Z,14.84
2019-05-25T02:10:13.755Z,14.81
2019-05-25T02:11:13.768Z,14.83
2019-05-25T02:12:13.777Z,14.74
2019-05-25T02:13:13.786Z,14.81
2019-05-25T02:14:13.797Z,14.74
2019-05-25T02:15:13.810Z,14.72
2019-05-25T02:16:13.815Z,14.74
2019-05-25T02:17:13.823Z,14.74
2019-05-25T02:18:13.833Z,14.68
2019-05-25T02:19:13.847Z,14.61
2019-05-25T02:20:13.853Z,14.56
2019-05-25T02:21:13.864Z,14.60
2019-05-25T02:22:13.871Z,14.57
2019-05-25T02:23:13.883Z,14.44
2019-05-25T02:24:13.890Z,14.46
2019-05-25T02:25:18.319Z,14.37
2019-05-25T02:26:13.907Z,14.44
2019-05-25T02:27:13.916Z,14.43
2019-05-25T02:28:13.930Z,14.32
2019-05-25T02:29:13.937Z,14.39
2019-05-25T02:30:13.947Z,14.37
2019-05-25T02:31:13.959Z,14.27
2019-05-25T02:32:13.965Z,14.38
2019-05-25T02:33:13.971Z,14.49
2019-05-25T02:34:13.981Z,14.56
2019-05-25T02:35:13.992Z,14.43
2019-05-25T02:36:13.994Z,14.46
2019-05-25T02:37:14.009Z,14.60
2019-05-25T02:38:14.017Z,14.65
2019-05-25T02:39:14.032Z,14.65
2019-05-25T02:40:14.037Z,14.78
2019-05-25T02:41:14.047Z,14.74
2019-05-25T02:42:14.055Z,14.86
2019-05-25T02:43:14.063Z,14.93
2019-05-25T02:44:14.075Z,14.99
2019-05-25T02:45:14.080Z,15.01
2019-05-25T02:46:14.095Z,15.08
2019-05-25T02:47:14.101Z,15.12
2019-05-25T02:48:14.110Z,15.12
2019-05-25T02:49:14.130Z,15.23
2019-05-25T02:50:14.126Z,15.12
2019-05-25T02:51:14.135Z,15.24
2019-05-25T02:52:14.152Z,15.27
2019-05-25T02:53:14.155Z,15.31
2019-05-25T02:54:14.164Z,15.24
2019-05-25T02:55:14.174Z,15.27
2019-05-25T02:56:14.185Z,15.12
2019-05-25T02:57:14.196Z,15.08
2019-05-25T02:58:14.204Z,15.09
2019-05-25T02:59:14.212Z,14.99
2019-05-25T03:00:14.225Z,15.01
2019-05-25T03:01:14.234Z,15.01
2019-05-25T03:02:14.239Z,14.98
2019-05-25T03:03:14.254Z,14.95
2019-05-25T03:04:14.258Z,14.83
2019-05-25T03:05:14.265Z,14.78
2019-05-25T03:06:14.286Z,14.75
2019-05-25T03:07:14.286Z,14.71
2019-05-25T03:08:14.298Z,14.75
2019-05-25T03:09:14.303Z,14.69
2019-05-25T03:10:14.316Z,14.72
2019-05-25T03:11:14.325Z,14.71
2019-05-25T03:12:14.329Z,14.67
2019-05-25T03:13:14.342Z,14.71
2019-05-25T03:14:14.347Z,14.57
2019-05-25T03:15:14.359Z,14.44
2019-05-25T03:16:14.367Z,14.39
2019-05-25T03:17:14.375Z,14.43
2019-05-25T03:18:14.385Z,14.32
2019-05-25T03:19:14.396Z,14.34
2019-05-25T03:20:14.414Z,14.17
2019-05-25T03:21:14.411Z,14.31
2019-05-25T03:22:14.422Z,14.28
2019-05-25T03:23:14.430Z,14.34
2019-05-25T03:24:14.440Z,14.31
2019-05-25T03:25:14.443Z,14.25
2019-05-25T03:26:14.458Z,14.24
2019-05-25T03:27:14.468Z,14.19
2019-05-25T03:28:14.476Z,14.29
2019-05-25T03:29:14.486Z,14.16
2019-05-25T03:30:14.494Z,14.16
2019-05-25T03:31:14.511Z,14.13
2019-05-25T03:32:14.516Z,14.13
2019-05-25T03:33:14.526Z,14.14
2019-05-25T03:34:14.528Z,14.13
2019-05-25T03:35:14.538Z,14.06
2019-05-25T03:36:14.552Z,14.12
2019-05-25T03:37:14.566Z,14.06
2019-05-25T03:38:14.567Z,14.06
2019-05-25T03:39:14.574Z,13.99
2019-05-25T03:40:14.585Z,13.99
2019-05-25T03:41:14.596Z,14.01
2019-05-25T03:42:14.599Z,13.99
2019-05-25T03:43:14.609Z,13.98
2019-05-25T03:44:14.621Z,14.02
2019-05-25T03:45:14.640Z,13.98
2019-05-25T03:46:14.640Z,13.98
2019-05-25T03:47:14.644Z,13.95
2019-05-25T03:48:14.657Z,14.02
2019-05-25T03:49:14.667Z,14.02
2019-05-25T03:50:14.676Z,13.95
2019-05-25T03:51:14.683Z,13.94
2019-05-25T03:52:14.696Z,13.98
2019-05-25T03:53:14.703Z,13.95
2019-05-25T03:54:14.713Z,13.81
2019-05-25T03:55:14.720Z,13.89
2019-05-25T03:56:14.737Z,13.81
2019-05-25T03:57:14.738Z,13.88
2019-05-25T03:58:14.747Z,13.89
2019-05-25T03:59:14.759Z,13.91
2019-05-25T04:00:14.765Z,13.95
2019-05-25T04:01:14.777Z,14.04
2019-05-25T04:02:14.778Z,13.94
2019-05-25T04:03:14.786Z,13.96
2019-05-25T04:04:14.805Z,13.96
2019-05-25T04:05:14.809Z,13.98
2019-05-25T04:06:14.817Z,14.02
2019-05-25T04:07:14.825Z,14.06
2019-05-25T04:08:14.838Z,13.98
2019-05-25T04:09:14.850Z,13.96
2019-05-25T04:10:14.861Z,14.10
2019-05-25T04:11:14.861Z,14.20
2019-05-25T04:12:14.871Z,14.17
2019-05-25T04:13:14.881Z,14.27
2019-05-25T04:14:14.893Z,14.20
2019-05-25T04:15:14.897Z,14.29
2019-05-25T04:16:14.906Z,14.31
2019-05-25T04:17:14.915Z,14.31
2019-05-25T04:18:14.926Z,14.31
2019-05-25T04:19:14.935Z,14.25
2019-05-25T04:20:14.942Z,14.31
2019-05-25T04:21:14.953Z,14.32
2019-05-25T04:22:14.959Z,14.32
2019-05-25T04:23:14.970Z,14.32
2019-05-25T04:24:14.976Z,14.28
2019-05-25T04:25:14.990Z,14.28
2019-05-25T04:26:22.566Z,14.29
2019-05-25T04:27:15.005Z,14.32
2019-05-25T04:28:15.017Z,14.29
2019-05-25T04:29:15.025Z,14.29
2019-05-25T04:30:15.037Z,14.35
2019-05-25T04:31:15.043Z,14.42
2019-05-25T04:32:15.051Z,14.60
2019-05-25T04:33:15.056Z,14.47
2019-05-25T04:34:15.068Z,14.49
2019-05-25T04:35:15.076Z,14.56
2019-05-25T04:36:15.086Z,14.47
2019-05-25T04:37:15.095Z,14.47
2019-05-25T04:38:15.108Z,14.47
2019-05-25T04:39:15.116Z,14.56
2019-05-25T04:40:15.129Z,14.46
2019-05-25T04:41:15.136Z,14.56
2019-05-25T04:42:15.141Z,14.47
2019-05-25T04:43:15.147Z,14.43
2019-05-25T04:44:15.164Z,14.49
2019-05-25T04:45:15.168Z,14.46
2019-05-25T04:46:15.182Z,14.46
2019-05-25T04:47:26.448Z,14.49
2019-05-25T04:48:15.230Z,14.50
2019-05-25T04:49:15.201Z,14.54
2019-05-25T04:50:15.285Z,14.62
2019-05-25T04:51:15.220Z,14.54
2019-05-25T04:52:15.228Z,14.57
2019-05-25T04:53:15.237Z,14.60
2019-05-25T04:54:15.244Z,14.56
2019-05-25T04:55:15.257Z,14.56
2019-05-25T04:56:15.265Z,14.60
2019-05-25T04:57:15.282Z,14.78
2019-05-25T04:58:15.286Z,14.81
2019-05-25T04:59:15.293Z,14.86
2019-05-25T05:00:15.301Z,14.95
2019-05-25T05:01:15.314Z,15.01
2019-05-25T05:02:15.319Z,15.03
2019-05-25T05:03:15.330Z,15.19
2019-05-25T05:04:15.344Z,15.20
2019-05-25T05:05:15.360Z,15.19
2019-05-25T05:06:15.361Z,15.26
2019-05-25T05:07:15.366Z,15.41
2019-05-25T05:08:15.376Z,15.36
2019-05-25T05:09:15.385Z,15.43
2019-05-25T05:10:15.395Z,15.39
2019-05-25T05:11:15.402Z,15.42
2019-05-25T05:12:15.411Z,15.45
2019-05-25T05:13:15.420Z,15.57
2019-05-25T05:14:15.436Z,15.54
2019-05-25T05:15:15.438Z,15.68
2019-05-25T05:16:15.450Z,15.72
2019-05-25T05:17:15.455Z,15.78
2019-05-25T05:18:15.470Z,15.76
2019-05-25T05:19:15.477Z,15.79
2019-05-25T05:20:15.487Z,15.94
2019-05-25T05:21:15.494Z,15.97
2019-05-25T05:22:15.507Z,16.01
2019-05-25T05:23:15.519Z,16.12
2019-05-25T05:24:15.523Z,16.18
2019-05-25T05:25:15.538Z,16.14
2019-05-25T05:26:15.544Z,16.15
2019-05-25T05:27:15.553Z,16.23
2019-05-25T05:28:15.565Z,16.30
2019-05-25T05:29:15.571Z,16.37
2019-05-25T05:30:15.578Z,16.38
2019-05-25T05:31:23.417Z,16.37
2019-05-25T05:32:27.051Z,16.50
2019-05-25T05:33:15.608Z,16.48
2019-05-25T05:34:15.615Z,16.53
2019-05-25T05:35:15.632Z,16.55
2019-05-25T05:36:15.636Z,16.68
2019-05-25T05:37:15.641Z,16.67
2019-05-25T05:38:15.654Z,16.65
2019-05-25T05:39:15.668Z,16.70
2019-05-25T05:40:15.675Z,16.74
2019-05-25T05:41:15.685Z,16.71
2019-05-25T05:42:15.694Z,16.85
2019-05-25T05:43:15.705Z,16.85
2019-05-25T05:44:15.720Z,16.88
2019-05-25T05:45:15.723Z,16.83
2019-05-25T05:46:15.736Z,16.95
2019-05-25T05:47:15.744Z,16.88
2019-05-25T05:48:15.750Z,16.89
2019-05-25T05:49:15.766Z,17.06
2019-05-25T05:50:15.772Z,17.04
2019-05-25T05:51:15.782Z,17.13
2019-05-25T05:52:15.796Z,17.11
2019-05-25T05:53:15.801Z,17.15
2019-05-25T05:54:15.810Z,17.11
2019-05-25T05:55:17.453Z,17.15
2019-05-25T05:56:15.828Z,17.26
2019-05-25T05:57:15.842Z,17.20
2019-05-25T05:58:15.851Z,17.23
2019-05-25T05:59:15.860Z,17.26
2019-05-25T06:00:15.886Z,17.23
2019-05-25T06:01:15.900Z,17.25
2019-05-25T06:02:15.888Z,17.25
2019-05-25T06:03:15.902Z,17.36
2019-05-25T06:04:15.909Z,17.35
2019-05-25T06:05:15.923Z,17.29
2019-05-25T06:06:15.934Z,17.30
2019-05-25T06:07:15.938Z,17.32
2019-05-25T06:08:15.947Z,17.46
2019-05-25T06:09:15.957Z,17.53
2019-05-25T06:10:15.968Z,17.54
2019-05-25T06:11:15.976Z,17.54
2019-05-25T06:12:15.989Z,17.66
2019-05-25T06:13:15.997Z,17.57
2019-05-25T06:14:16.010Z,17.66
2019-05-25T06:15:16.025Z,17.71
2019-05-25T06:16:16.031Z,17.71
2019-05-25T06:17:16.040Z,17.87
2019-05-25T06:18:16.047Z,17.84
2019-05-25T06:19:16.059Z,17.82
2019-05-25T06:20:16.130Z,17.88
2019-05-25T06:21:16.081Z,17.87
2019-05-25T06:22:16.091Z,17.92
2019-05-25T06:23:16.107Z,17.89
2019-05-25T06:24:16.109Z,18.02
2019-05-25T06:25:16.130Z,17.99
2019-05-25T06:26:16.129Z,18.03
2019-05-25T06:27:26.889Z,18.06
2019-05-25T06:28:18.274Z,18.09
2019-05-25T06:29:16.161Z,18.15
2019-05-25T06:30:16.172Z,18.19
2019-05-25T06:31:16.188Z,18.22
2019-05-25T06:32:16.194Z,18.31
2019-05-25T06:33:16.202Z,18.43
2019-05-25T06:34:16.205Z,18.37
2019-05-25T06:35:16.219Z,18.31
2019-05-25T06:36:16.288Z,18.36
2019-05-25T06:37:16.242Z,18.40
2019-05-25T06:38:16.257Z,18.44
2019-05-25T06:39:16.290Z,18.55
2019-05-25T06:40:16.273Z,18.57
2019-05-25T06:41:16.284Z,18.65
2019-05-25T06:42:16.291Z,18.73
2019-05-25T06:43:16.305Z,18.70
2019-05-25T06:44:16.312Z,18.74
2019-05-25T06:45:16.326Z,18.74
2019-05-25T06:46:16.334Z,18.79
2019-05-25T06:47:16.366Z,18.83
2019-05-25T06:48:16.358Z,18.86
2019-05-25T06:49:16.371Z,18.98
2019-05-25T06:50:16.382Z,18.95
2019-05-25T06:51:16.389Z,18.92
2019-05-25T06:52:16.399Z,19.01
2019-05-25T06:53:16.417Z,19.10
2019-05-25T06:54:16.422Z,19.05
2019-05-25T06:55:16.427Z,19.05
2019-05-25T06:56:16.439Z,19.08
2019-05-25T06:57:16.451Z,19.18
2019-05-25T06:58:16.464Z,19.20
2019-05-25T06:59:16.474Z,19.31
2019-05-25T07:00:16.484Z,19.28
2019-05-25T07:01:16.492Z,19.31
2019-05-25T07:02:16.507Z,19.29
2019-05-25T07:03:16.511Z,19.28
2019-05-25T07:04:16.527Z,19.28
2019-05-25T07:05:16.538Z,19.29
2019-05-25T07:06:16.547Z,19.35
2019-05-25T07:07:16.559Z,19.38
2019-05-25T07:08:16.566Z,19.38
2019-05-25T07:09:16.584Z,19.25
2019-05-25T07:10:16.595Z,19.25
2019-05-25T07:11:16.601Z,19.24
2019-05-25T07:12:16.610Z,19.31
2019-05-25T07:13:16.627Z,19.38
2019-05-25T07:14:16.635Z,19.36
2019-05-25T07:15:16.642Z,19.29
2019-05-25T07:16:16.654Z,19.33
2019-05-25T07:17:16.666Z,19.15
2019-05-25T07:18:16.676Z,19.31
2019-05-25T07:19:16.681Z,19.29
2019-05-25T07:20:16.717Z,19.17
2019-05-25T07:21:16.711Z,19.21
2019-05-25T07:22:16.717Z,19.31
2019-05-25T07:23:16.730Z,19.21
2019-05-25T07:24:16.741Z,19.24
2019-05-25T07:25:20.027Z,19.33
2019-05-25T07:26:16.761Z,19.42
2019-05-25T07:27:16.771Z,19.39
2019-05-25T07:28:16.781Z,19.57
2019-05-25T07:29:16.798Z,19.58
2019-05-25T07:30:16.810Z,19.66
2019-05-25T07:31:16.814Z,19.75
2019-05-25T07:32:16.827Z,19.72
2019-05-25T07:33:16.891Z,19.91
2019-05-25T07:34:16.848Z,19.93
2019-05-25T07:35:16.879Z,20.09
2019-05-25T07:36:16.872Z,20.12
2019-05-25T07:37:16.882Z,20.15
2019-05-25T07:38:16.896Z,20.16
2019-05-25T07:39:16.903Z,20.10
2019-05-25T07:40:16.916Z,20.15
2019-05-25T07:41:16.935Z,20.13
2019-05-25T07:42:19.899Z,20.13
2019-05-25T07:43:16.946Z,20.10
2019-05-25T07:44:16.956Z,20.21
2019-05-25T07:45:16.968Z,20.21
2019-05-25T07:46:17.361Z,20.28
2019-05-25T07:47:16.993Z,20.28
2019-05-25T07:48:17.006Z,20.21
2019-05-25T07:49:17.015Z,20.25
2019-05-25T07:50:17.028Z,20.24
2019-05-25T07:51:17.035Z,20.20
2019-05-25T07:52:17.049Z,20.28
2019-05-25T07:53:17.060Z,20.15
2019-05-25T07:54:17.074Z,20.15
2019-05-25T07:55:17.084Z,20.24
2019-05-25T07:56:17.094Z,20.23
2019-05-25T07:57:17.106Z,20.31
2019-05-25T07:58:18.533Z,20.34
2019-05-25T07:59:17.128Z,20.41
2019-05-25T08:00:17.139Z,20.41
2019-05-25T08:01:17.150Z,20.27
2019-05-25T08:02:17.163Z,20.39
2019-05-25T08:03:17.173Z,20.46
2019-05-25T08:04:17.188Z,20.35
2019-05-25T08:05:17.203Z,20.41
2019-05-25T08:06:17.209Z,20.35
2019-05-25T08:07:17.234Z,20.33
2019-05-25T08:08:17.230Z,20.41
2019-05-25T08:09:17.239Z,20.42
2019-05-25T08:10:17.250Z,20.46
2019-05-25T08:11:17.261Z,20.58
2019-05-25T08:12:17.275Z,20.61
2019-05-25T08:13:17.289Z,20.59
2019-05-25T08:14:17.294Z,20.61
2019-05-25T08:15:17.307Z,20.59
2019-05-25T08:16:17.322Z,20.62
2019-05-25T08:17:17.334Z,20.68
2019-05-25T08:18:17.340Z,20.68
2019-05-25T08:19:17.354Z,20.64
2019-05-25T08:20:17.370Z,20.69
2019-05-25T08:21:17.378Z,20.68
2019-05-25T08:22:17.391Z,20.65
2019-05-25T08:23:17.413Z,20.66
2019-05-25T08:24:17.417Z,20.58
2019-05-25T08:25:17.424Z,20.59
2019-05-25T08:26:17.433Z,20.62
2019-05-25T08:27:17.449Z,20.64
2019-05-25T08:28:31.797Z,20.66
2019-05-25T08:29:17.469Z,20.68
2019-05-25T08:30:17.482Z,20.76
2019-05-25T08:31:17.492Z,20.79
2019-05-25T08:32:17.503Z,20.95
2019-05-25T08:33:17.517Z,20.98
2019-05-25T08:34:17.527Z,21.08
2019-05-25T08:35:17.536Z,21.23
2019-05-25T08:36:17.554Z,21.32
2019-05-25T08:37:17.564Z,21.32
2019-05-25T08:38:17.575Z,21.34
2019-05-25T09:27:28.017Z,20.93
2019-05-25T09:28:28.016Z,21.14
2019-05-25T09:30:32.016Z,21.20
2019-05-25T09:31:32.011Z,21.27
2019-05-25T09:33:36.498Z,21.50
2019-05-25T09:34:36.500Z,21.59
2019-05-25T09:36:40.520Z,21.75
2019-05-25T09:37:40.513Z,21.69
2019-05-25T09:39:44.996Z,21.88
2019-05-25T09:40:45.007Z,21.91
2019-05-25T09:42:49.546Z,21.91
2019-05-25T09:43:49.510Z,21.98
2019-05-25T09:45:53.530Z,21.90
2019-05-25T09:46:53.533Z,21.81
2019-05-25T09:48:57.559Z,21.67
2019-05-25T09:49:57.570Z,21.74
2019-05-25T09:52:02.107Z,21.54
2019-05-25T09:53:02.099Z,21.63
2019-05-25T09:55:06.141Z,21.44
2019-05-25T09:56:06.123Z,21.42
2019-05-25T09:57:59.055Z,21.45
2019-05-25T09:58:59.062Z,21.46
2019-05-25T10:01:03.571Z,21.50
2019-05-25T10:02:03.571Z,21.53
2019-05-25T10:04:07.605Z,21.53
2019-05-25T10:05:07.611Z,21.59
2019-05-25T10:06:12.314Z,21.46
2019-05-25T10:07:07.626Z,21.35
2019-05-25T10:08:07.643Z,21.26
2019-05-25T10:09:07.653Z,21.26
2019-05-25T10:10:07.671Z,21.32
2019-05-25T10:11:07.682Z,21.29
2019-05-25T10:12:07.697Z,21.02
2019-05-25T10:13:07.696Z,20.89
2019-05-25T10:14:07.713Z,20.89
2019-05-25T10:15:07.723Z,20.72
2019-05-25T10:16:07.748Z,20.80
2019-05-25T10:17:07.750Z,20.84
2019-05-25T10:18:07.760Z,20.84
2019-05-25T10:19:07.774Z,20.84
2019-05-25T10:20:07.785Z,20.90
2019-05-25T10:21:07.797Z,20.83
2019-05-25T10:22:07.808Z,20.86
2019-05-25T10:23:07.822Z,20.79
2019-05-25T10:24:07.833Z,20.74
2019-05-25T10:25:07.857Z,20.71
2019-05-25T10:26:07.857Z,20.62
2019-05-25T10:27:07.872Z,20.64
2019-05-25T10:28:07.878Z,20.66
2019-05-25T10:29:07.894Z,20.62
2019-05-25T10:30:07.905Z,20.65
2019-05-25T10:31:07.917Z,20.68
2019-05-25T10:32:07.933Z,20.69
2019-05-25T10:33:07.937Z,20.71
2019-05-25T10:34:07.949Z,20.87
2019-05-25T10:35:07.961Z,20.89
2019-05-25T10:36:07.976Z,20.86
2019-05-25T10:37:07.993Z,20.90
2019-05-25T10:38:08.012Z,20.96
2019-05-25T10:39:08.014Z,20.96
2019-05-25T10:40:08.026Z,21.09
2019-05-25T10:41:08.037Z,21.20
2019-05-25T10:42:08.042Z,21.26
2019-05-25T10:43:08.062Z,21.36
2019-05-25T10:44:08.073Z,21.42
2019-05-25T10:45:08.087Z,21.59
2019-05-25T10:46:08.099Z,21.63
2019-05-25T10:47:08.113Z,21.78
2019-05-25T10:48:08.123Z,21.97
2019-05-25T10:49:11.446Z,21.90
2019-05-25T10:50:08.146Z,21.91
2019-05-25T10:51:08.158Z,21.92
2019-05-25T10:52:08.174Z,21.85
2019-05-25T10:53:08.183Z,21.90
2019-05-25T10:54:08.199Z,21.91
2019-05-25T10:55:08.212Z,21.90
2019-05-25T10:56:08.224Z,21.90
2019-05-25T10:57:08.292Z,21.83
2019-05-25T10:58:08.245Z,21.67
2019-05-25T10:59:08.253Z,21.67
2019-05-25T11:00:08.272Z,21.67
2019-05-25T11:01:08.311Z,21.71
2019-05-25T11:02:08.295Z,21.67
2019-05-25T11:03:08.307Z,21.64
2019-05-25T11:04:08.324Z,21.75
2019-05-25T11:05:08.331Z,21.75
2019-05-25T11:06:08.344Z,21.74
2019-05-25T11:07:08.357Z,21.79
2019-05-25T11:08:08.372Z,21.88
2019-05-25T11:09:08.379Z,21.92
2019-05-25T11:10:08.397Z,21.94
2019-05-25T11:11:08.404Z,22.06
2019-05-25T11:12:08.419Z,22.14
2019-05-25T11:13:08.432Z,22.23
2019-05-25T11:14:08.447Z,22.34
2019-05-25T11:15:08.456Z,22.46
2019-05-25T11:16:08.466Z,22.53
2019-05-25T11:17:08.493Z,22.57
2019-05-25T11:18:08.495Z,22.65
2019-05-25T11:19:08.506Z,22.68
2019-05-25T11:20:09.101Z,22.78
2019-05-25T11:21:08.531Z,22.97
2019-05-25T11:22:08.544Z,23.20
2019-05-25T11:23:08.570Z,23.53
2019-05-25T11:24:08.571Z,23.89
2019-05-25T11:25:08.588Z,24.39
2019-05-25T11:26:08.600Z,25.01
2019-05-25T11:27:08.611Z,25.68
2019-05-25T11:28:08.628Z,26.54
2019-05-25T11:29:08.641Z,27.26
2019-05-25T11:30:09.964Z,28.03
2019-05-25T11:31:08.673Z,28.78
2019-05-25T11:32:08.771Z,29.35
2019-05-25T11:33:08.706Z,30.11
2019-05-25T11:34:08.723Z,30.83
2019-05-25T11:35:08.742Z,31.49
2019-05-25T11:36:08.818Z,32.18
2019-05-25T11:37:08.780Z,32.66
2019-05-25T11:38:08.982Z,33.08
2019-05-25T11:39:08.819Z,33.60
2019-05-25T11:40:08.846Z,33.68
2019-05-25T11:41:08.859Z,34.14
2019-05-25T11:42:08.877Z,34.38
2019-05-25T11:43:08.898Z,34.74
2019-05-25T11:44:08.919Z,35.03
2019-05-25T11:45:08.942Z,35.15
2019-05-25T11:46:08.964Z,35.32
2019-05-25T11:47:08.981Z,35.63
2019-05-25T11:48:09.005Z,35.85
2019-05-25T11:49:21.629Z,35.97
2019-05-25T11:50:09.047Z,36.17
2019-05-25T11:51:09.069Z,36.43
2019-05-25T11:52:09.091Z,36.39
2019-05-25T11:53:09.115Z,36.41
2019-05-25T11:54:09.133Z,36.57
2019-05-25T11:55:09.158Z,36.65
2019-05-25T11:56:09.183Z,36.79
2019-05-25T11:57:09.207Z,36.99
2019-05-25T11:58:09.239Z,37.09
2019-05-25T11:59:09.251Z,37.20
2019-05-25T12:00:23.620Z,37.39
2019-05-25T12:01:09.295Z,37.48
2019-05-25T12:02:09.320Z,37.29
2019-05-25T12:03:09.342Z,37.23
2019-05-25T12:04:09.367Z,37.32
2019-05-25T12:05:09.409Z,37.50
2019-05-25T12:06:09.413Z,37.48
2019-05-25T12:07:09.436Z,37.73
2019-05-25T12:08:09.459Z,37.80
2019-05-25T12:09:09.484Z,37.83
2019-05-25T12:10:09.509Z,37.96
2019-05-25T12:11:09.533Z,38.20
2019-05-25T12:12:09.558Z,38.27
2019-05-25T12:13:09.581Z,38.46
2019-05-25T12:14:09.605Z,38.61
2019-05-25T12:15:09.628Z,38.83
2019-05-25T12:16:09.653Z,39.15
2019-05-25T12:17:09.763Z,39.21
2019-05-25T12:18:09.716Z,39.22
2019-05-25T12:19:09.725Z,38.95
2019-05-25T12:20:09.751Z,37.77
2019-05-25T12:21:09.791Z,37.14
2019-05-25T12:22:09.798Z,36.21
2019-05-25T12:23:09.911Z,35.54
2019-05-25T12:24:09.841Z,34.58
2019-05-25T12:25:09.873Z,33.94
2019-05-25T12:26:09.896Z,33.76
2019-05-25T12:27:09.921Z,34.45
2019-05-25T12:28:09.942Z,34.69
2019-05-25T12:29:09.965Z,34.05
2019-05-25T12:30:10.000Z,33.61
2019-05-25T12:31:10.021Z,32.99
2019-05-25T12:32:10.031Z,32.21
2019-05-25T12:33:10.054Z,31.48
2019-05-25T12:34:10.079Z,30.76
2019-05-25T12:35:10.101Z,30.08
2019-05-25T12:36:10.121Z,29.44
2019-05-25T12:37:10.140Z,28.77
2019-05-25T12:38:10.161Z,28.01
2019-05-25T12:39:10.181Z,27.53
2019-05-25T12:40:10.202Z,26.44
2019-05-25T12:41:10.222Z,26.08
2019-05-25T12:42:10.242Z,25.54
2019-05-25T12:43:10.266Z,25.34
2019-05-25T12:44:10.283Z,24.98
2019-05-25T12:45:10.302Z,24.54
2019-05-25T12:46:10.321Z,24.13
2019-05-25T12:47:10.396Z,23.64
2019-05-25T12:48:10.357Z,23.46
2019-05-25T12:49:10.371Z,23.14
2019-05-25T12:50:10.390Z,22.92
2019-05-25T12:51:10.410Z,22.53
2019-05-25T12:52:10.428Z,22.32
2019-05-25T12:53:10.453Z,22.12
2019-05-25T12:54:10.464Z,21.82
2019-05-25T12:55:10.482Z,21.60
2019-05-25T12:56:10.492Z,21.51
2019-05-25T12:57:10.554Z,21.36
2019-05-25T12:58:10.527Z,21.16
2019-05-25T12:59:10.540Z,20.96
2019-05-25T13:00:16.126Z,20.91
2019-05-25T13:01:10.573Z,20.72
2019-05-25T13:02:10.587Z,20.61
2019-05-25T13:03:11.097Z,20.62
2019-05-25T13:04:10.614Z,20.49
2019-05-25T13:05:10.652Z,20.47
2019-05-25T13:06:10.647Z,20.12
2019-05-25T13:07:10.671Z,20.02
2019-05-25T13:08:10.676Z,19.91
2019-05-25T13:09:10.692Z,19.78
2019-05-25T13:10:10.697Z,19.72
2019-05-25T13:11:10.718Z,19.70
2019-05-25T13:12:10.735Z,19.68
2019-05-25T13:13:10.750Z,19.63
2019-05-25T13:14:14.591Z,19.63
2019-05-25T13:15:10.776Z,19.70
2019-05-25T13:16:10.795Z,19.72
2019-05-25T13:17:10.801Z,19.83
2019-05-25T13:18:10.813Z,19.76
2019-05-25T13:19:10.829Z,19.72
2019-05-25T13:20:10.843Z,19.76
2019-05-25T13:21:10.858Z,19.76
2019-05-25T13:22:10.866Z,19.78
2019-05-25T13:23:10.876Z,19.73
2019-05-25T13:24:10.892Z,19.79
2019-05-25T13:25:10.908Z,19.76
2019-05-25T13:26:10.912Z,19.86
2019-05-25T13:27:10.932Z,19.87
2019-05-25T13:28:10.943Z,19.88
2019-05-25T13:29:10.955Z,19.94
2019-05-25T13:30:10.974Z,19.79
2019-05-25T13:31:12.262Z,19.73
2019-05-25T13:32:10.993Z,19.76
2019-05-25T13:33:11.006Z,19.72
2019-05-25T13:34:11.013Z,19.69
2019-05-25T13:35:11.032Z,19.69
2019-05-25T13:36:11.043Z,19.60
2019-05-25T13:37:11.062Z,19.48
2019-05-25T13:38:11.079Z,19.36
2019-05-25T13:39:11.076Z,19.29
2019-05-25T13:40:11.104Z,19.23
2019-05-25T13:41:11.106Z,19.15
2019-05-25T13:42:11.125Z,19.18
2019-05-25T13:43:11.129Z,19.23
2019-05-25T13:44:11.144Z,19.21
2019-05-25T13:45:11.183Z,19.17
2019-05-25T13:46:11.161Z,19.13
2019-05-25T13:47:11.177Z,19.06
2019-05-25T13:48:11.188Z,18.92
2019-05-25T13:49:11.213Z,18.98
2019-05-25T13:50:11.212Z,18.80
2019-05-25T13:51:11.223Z,18.87
2019-05-25T13:52:11.237Z,18.68
2019-05-25T13:53:11.263Z,18.67
2019-05-25T13:54:11.254Z,18.47
2019-05-25T13:55:11.275Z,18.50
2019-05-25T13:56:11.345Z,18.46
2019-05-25T13:57:11.297Z,18.37